createdAt,value
2022-10-15T00:01:44.442Z,3.25
2022-10-15T00:06:45.953Z,4.00
2022-10-15T00:11:47.380Z,3.90
2022-10-15T00:16:48.889Z,3.55
2022-10-15T00:21:50.398Z,3.88
2022-10-15T00:26:51.879Z,3.58
2022-10-15T00:31:54.634Z,3.17
2022-10-15T00:36:56.126Z,3.20
2022-10-15T00:41:57.549Z,3.80
2022-10-15T00:47:11.641Z,3.30
2022-10-15T00:52:21.717Z,3.72
2022-10-15T01:02:25.386Z,2.75
2022-10-15T01:07:27.214Z,3.58
2022-10-15T01:12:37.638Z,2.65
2022-10-15T01:22:46.618Z,2.67
2022-10-15T01:27:54.421Z,2.60
2022-10-15T01:33:21.578Z,2.90
2022-10-15T01:38:22.980Z,2.42
2022-10-15T01:43:35.796Z,2.60
2022-10-15T01:48:38.047Z,3.20
2022-10-15T01:53:40.169Z,2.13
2022-10-15T01:58:43.276Z,2.17
2022-10-15T02:03:51.648Z,2.65
2022-10-15T02:08:57.829Z,2.53
2022-10-15T02:14:25.402Z,2.33
2022-10-15T02:19:30.852Z,2.42
2022-10-15T02:24:34.649Z,2.40
2022-10-15T02:29:36.849Z,2.65
2022-10-15T02:34:39.081Z,2.20
2022-10-15T02:39:40.517Z,2.50
2022-10-15T02:44:41.953Z,2.47
2022-10-15T02:49:43.478Z,2.67
2022-10-15T02:54:44.910Z,2.08
2022-10-15T02:59:46.343Z,2.72
2022-10-15T03:04:47.794Z,2.65
2022-10-15T03:09:49.218Z,2.55
2022-10-15T03:14:50.653Z,2.33
2022-10-15T03:19:52.120Z,2.50
2022-10-15T03:24:53.586Z,2.22
2022-10-15T03:29:55.072Z,2.35
2022-10-15T03:34:56.494Z,2.47
2022-10-15T03:39:57.923Z,2.30
2022-10-15T03:44:59.358Z,2.60
2022-10-15T03:50:00.790Z,2.25
2022-10-15T03:55:02.253Z,2.33
2022-10-15T04:00:04.506Z,2.45
2022-10-15T04:05:06.057Z,2.30
2022-10-15T04:10:07.790Z,2.33
2022-10-15T04:15:09.468Z,2.67
2022-10-15T04:20:11.154Z,2.65
2022-10-15T04:25:12.586Z,2.75
2022-10-15T04:30:14.345Z,3.38
2022-10-15T04:35:15.817Z,2.78
2022-10-15T04:40:18.537Z,3.00
2022-10-15T04:45:20.104Z,3.20
2022-10-15T04:50:21.571Z,3.45
2022-10-15T04:55:22.998Z,3.95
2022-10-15T05:00:24.421Z,4.63
2022-10-15T05:05:25.913Z,5.07
2022-10-15T05:10:27.345Z,6.07
2022-10-15T05:15:28.798Z,6.20
2022-10-15T05:20:30.213Z,4.97
2022-10-15T05:25:31.640Z,5.85
2022-10-15T05:30:34.485Z,5.18
2022-10-15T05:35:36.038Z,5.90
2022-10-15T05:40:37.517Z,7.20
2022-10-15T05:45:38.945Z,6.88
2022-10-15T05:50:40.378Z,7.22
2022-10-15T05:55:41.813Z,6.93
2022-10-15T06:00:43.301Z,8.25
2022-10-15T06:05:44.729Z,7.65
2022-10-15T06:10:46.437Z,7.93
2022-10-15T06:15:47.937Z,8.88
2022-10-15T06:20:52.940Z,9.43
2022-10-15T06:25:54.639Z,9.32
2022-10-15T06:30:57.840Z,9.02
2022-10-15T06:36:02.980Z,8.60
2022-10-15T06:41:05.233Z,7.78
2022-10-15T06:46:06.972Z,7.90
2022-10-15T06:51:08.573Z,7.53
2022-10-15T06:56:10.010Z,8.25
2022-10-15T07:01:11.550Z,9.23
2022-10-15T07:06:13.035Z,9.30
2022-10-15T07:11:14.480Z,10.85
2022-10-15T07:16:15.930Z,10.90
2022-10-15T07:21:17.693Z,11.13
2022-10-15T07:26:19.188Z,10.85
2022-10-15T07:31:20.777Z,10.05
2022-10-15T07:36:22.254Z,10.85
2022-10-15T07:41:23.951Z,10.70
2022-10-15T07:46:25.490Z,10.77
2022-10-15T07:51:26.961Z,11.23
2022-10-15T07:56:28.447Z,11.18
2022-10-15T08:01:29.894Z,10.73
2022-10-15T08:06:32.036Z,9.65
2022-10-15T08:11:33.486Z,10.98
2022-10-15T08:16:35.477Z,11.65
2022-10-15T08:21:36.954Z,11.95
2022-10-15T08:26:38.528Z,10.55
2022-10-15T08:31:40.124Z,11.38
2022-10-15T08:36:41.589Z,11.60
2022-10-15T08:41:45.484Z,11.18
2022-10-15T08:46:49.150Z,11.10
2022-10-15T08:51:54.735Z,11.13
2022-10-15T08:57:06.781Z,10.50
2022-10-15T09:02:08.271Z,10.43
2022-10-15T09:07:14.421Z,11.02
2022-10-15T09:12:37.012Z,11.02
2022-10-15T09:17:38.755Z,11.35
2022-10-15T09:22:40.323Z,12.80
2022-10-15T09:27:42.818Z,11.68
2022-10-15T09:33:03.165Z,12.45
2022-10-15T09:38:23.155Z,10.10
2022-10-15T09:43:30.846Z,10.67
2022-10-15T09:48:33.955Z,11.57
2022-10-15T09:53:38.531Z,10.88
2022-10-15T09:58:56.721Z,11.52
2022-10-15T10:04:16.722Z,10.52
2022-10-15T10:09:21.187Z,11.07
2022-10-15T10:14:27.763Z,11.65
2022-10-15T10:19:29.297Z,12.27
2022-10-15T10:24:32.136Z,12.85
2022-10-15T10:29:36.784Z,12.80
2022-10-15T10:34:38.380Z,13.20
2022-10-15T10:39:40.054Z,14.73
2022-10-15T10:44:46.477Z,14.32
2022-10-15T10:49:52.641Z,14.35
2022-10-15T10:55:20.950Z,14.15
2022-10-15T11:00:41.072Z,14.07
2022-10-15T11:05:42.759Z,13.63
2022-10-15T11:10:49.565Z,14.82
2022-10-15T11:15:59.495Z,14.43
2022-10-15T11:21:14.527Z,14.35
2022-10-15T11:26:19.110Z,16.13
2022-10-15T11:31:49.075Z,15.57
2022-10-15T11:37:19.421Z,13.48
2022-10-15T11:42:27.076Z,14.20
2022-10-15T11:47:46.918Z,13.45
2022-10-15T11:52:58.033Z,12.63
2022-10-15T11:58:01.870Z,12.52
2022-10-15T12:03:12.362Z,11.07
2022-10-15T12:08:14.483Z,11.80
2022-10-15T12:13:27.933Z,11.40
2022-10-15T12:18:32.141Z,11.43
2022-10-15T12:23:36.410Z,10.77
2022-10-15T12:28:47.655Z,10.63
2022-10-15T12:33:50.646Z,8.80
2022-10-15T12:39:47.674Z,10.65
2022-10-15T12:44:48.662Z,10.07
2022-10-15T12:50:00.142Z,10.05
2022-10-15T12:55:20.193Z,12.05
2022-10-15T13:00:24.445Z,11.60
2022-10-15T13:05:32.870Z,12.73
2022-10-15T13:10:36.428Z,12.77
2022-10-15T13:15:37.881Z,11.65
2022-10-15T13:20:42.177Z,12.13
2022-10-15T13:25:43.765Z,10.93
2022-10-15T13:30:48.533Z,12.55
2022-10-15T13:35:50.178Z,10.75
2022-10-15T13:40:52.947Z,11.38
2022-10-15T13:45:55.516Z,11.23
2022-10-15T13:51:04.665Z,11.13
2022-10-15T13:56:25.513Z,11.73
2022-10-15T14:01:27.596Z,11.60
2022-10-15T14:06:38.219Z,12.05
2022-10-15T14:11:40.159Z,12.10
2022-10-15T14:16:46.905Z,12.38
2022-10-15T14:21:52.122Z,12.80
2022-10-15T14:26:53.629Z,14.27
2022-10-15T14:31:55.469Z,13.35
2022-10-15T14:36:57.172Z,13.05
2022-10-15T14:42:00.430Z,15.40
2022-10-15T14:47:03.445Z,13.55
2022-10-15T14:52:07.136Z,13.70
2022-10-15T14:57:23.349Z,12.70
2022-10-15T15:02:27.287Z,13.55
2022-10-15T15:07:28.986Z,13.02
2022-10-15T15:12:31.522Z,12.82
2022-10-15T15:17:34.109Z,13.40
2022-10-15T15:22:35.862Z,14.88
2022-10-15T15:27:37.662Z,13.60
2022-10-15T15:32:39.451Z,14.23
2022-10-15T15:37:40.911Z,13.98
2022-10-15T15:42:42.721Z,13.73
2022-10-15T15:47:44.259Z,14.15
2022-10-15T15:52:45.918Z,13.02
2022-10-15T15:57:47.479Z,13.50
2022-10-15T16:02:48.951Z,14.63
2022-10-15T16:07:50.442Z,13.23
2022-10-15T16:12:52.445Z,15.02
2022-10-15T16:17:54.059Z,14.95
2022-10-15T16:22:55.549Z,14.80
2022-10-15T16:27:59.609Z,14.65
2022-10-15T16:33:01.214Z,14.45
2022-10-15T16:38:02.720Z,14.52
2022-10-15T16:43:04.200Z,15.15
2022-10-15T16:48:06.402Z,14.63
2022-10-15T16:53:07.946Z,14.15
2022-10-15T16:58:09.413Z,15.15
2022-10-15T17:03:10.848Z,14.30
2022-10-15T17:08:14.512Z,16.27
2022-10-15T17:13:16.653Z,15.60
2022-10-15T17:18:18.278Z,15.48
2022-10-15T17:23:19.843Z,15.57
2022-10-15T17:28:21.314Z,17.58
2022-10-15T17:33:23.110Z,16.65
2022-10-15T17:38:25.041Z,16.88
2022-10-15T17:43:26.984Z,16.00
2022-10-15T17:48:28.747Z,14.63
2022-10-15T17:53:30.317Z,15.90
2022-10-15T17:58:33.901Z,16.25
2022-10-15T18:03:36.137Z,15.52
2022-10-15T18:08:37.601Z,15.32
2022-10-15T18:13:39.132Z,16.23
2022-10-15T18:18:40.634Z,17.38
2022-10-15T18:23:42.314Z,16.17
2022-10-15T18:28:45.177Z,15.98
2022-10-15T18:33:48.242Z,16.83
2022-10-15T18:38:49.935Z,16.95
2022-10-15T18:43:52.507Z,16.00
2022-10-15T18:48:54.641Z,16.67
2022-10-15T18:53:56.176Z,18.85
2022-10-15T18:58:57.650Z,18.45
2022-10-15T19:04:00.802Z,16.17
2022-10-15T19:09:03.542Z,16.63
2022-10-15T19:14:05.082Z,15.68
2022-10-15T19:19:07.267Z,14.80
2022-10-15T19:24:08.759Z,15.80
2022-10-15T19:29:10.456Z,16.13
2022-10-15T19:34:12.226Z,15.68
2022-10-15T19:39:15.422Z,15.65
2022-10-15T19:44:18.086Z,16.08
2022-10-15T19:49:24.049Z,14.18
2022-10-15T19:59:32.025Z,14.52
2022-10-15T20:04:35.601Z,14.90
2022-10-15T20:12:51.422Z,15.02
2022-10-15T20:15:02.012Z,15.20
2022-10-15T20:20:03.787Z,15.70
2022-10-15T20:25:05.280Z,16.30
2022-10-15T20:30:06.983Z,15.90
2022-10-15T20:35:08.738Z,17.58
2022-10-15T20:40:10.414Z,15.25
2022-10-15T20:45:14.643Z,15.85
2022-10-15T20:50:18.924Z,16.23
2022-10-15T20:55:20.613Z,15.93
2022-10-15T21:00:22.085Z,17.35
2022-10-15T21:05:23.753Z,15.05
2022-10-15T21:10:25.689Z,16.20
2022-10-15T21:15:27.585Z,16.70
2022-10-15T21:20:29.149Z,16.27
2022-10-15T21:25:30.684Z,15.38
2022-10-15T21:30:32.173Z,15.68
2022-10-15T21:35:33.638Z,15.48
2022-10-15T21:40:35.116Z,14.88
2022-10-15T21:45:36.579Z,15.07
2022-10-15T21:50:38.020Z,14.85
2022-10-15T21:55:39.460Z,14.40
2022-10-15T22:00:41.349Z,14.77
2022-10-15T22:05:42.841Z,13.38
2022-10-15T22:10:44.326Z,14.73
2022-10-15T22:15:45.782Z,15.93
2022-10-15T22:20:47.225Z,15.82
2022-10-15T22:25:56.733Z,15.63
2022-10-15T22:31:02.245Z,13.73
2022-10-15T22:36:05.457Z,14.25
2022-10-15T22:41:13.395Z,14.32
2022-10-15T22:46:15.039Z,12.30
2022-10-15T22:51:16.610Z,12.25
2022-10-15T22:56:18.771Z,12.00
2022-10-15T23:01:22.043Z,10.55
2022-10-15T23:06:23.945Z,10.05
2022-10-15T23:11:25.373Z,9.10
2022-10-15T23:16:31.329Z,8.98
2022-10-15T23:21:34.036Z,8.63
2022-10-15T23:26:36.484Z,9.13
2022-10-15T23:31:37.905Z,8.88
2022-10-15T23:36:39.349Z,8.43
2022-10-15T23:41:41.199Z,6.55
2022-10-15T23:46:42.666Z,6.70
2022-10-15T23:51:44.292Z,6.13
2022-10-15T23:56:46.381Z,6.97
